Aviation Digital Data Service (ADDS)

Output produced by TAFs form (1604 UTC 21 September 2017)
found at http://www.aviationweather.gov/adds/tafs/
 
METAR text: ZSSS 211530Z 06002MPS 030V090 CAVOK 22/19 Q1012 NOSIG
Conditions at: ZSSS (SHANGHAI/HONGQIA, CN) observed 1530 UTC 21 September 2017
Temperature: 22.0°C (72°F)
Dewpoint: 19.0°C (66°F) [RH = 83%]
Pressure (altimeter): 29.88 inches Hg (1012.0 mb)
Winds: from the ENE (60 degrees) at 5 MPH (4 knots; 2.1 m/s)
Visibility: 6 or more miles (10+ km)
Ceiling: ceiling and visibility are OK
Clouds: unknown
Weather: no significant weather observed at this time

Forecast for: ZSSS (SHANGHAI/HONGQIA, CN)
Text: TAF ZSSS 211512Z 2118/2218 04004MPS 6000 SCT020 TX26/2206Z TN21/2121Z
Forecast period: 1800 UTC 21 September 2017 to 1800 UTC 22 September 2017
Forecast type: FROM: standard forecast or significant change
Winds: from the NE (40 degrees) at 9 MPH (8 knots; 4.2 m/s)
Visibility: 4 miles (6 km)
Clouds: scattered clouds at 2000 feet AGL
Weather: no significant weather forecast for this period